createdAt,value
2022-09-22T00:01:55.821Z,88.95
2022-09-22T00:04:00.433Z,88.37
2022-09-22T00:06:07.317Z,88.15
2022-09-22T00:08:10.205Z,87.81
2022-09-22T00:10:13.082Z,88.71
2022-09-22T00:12:16.178Z,88.53
2022-09-22T00:14:22.417Z,88.89
2022-09-22T00:16:28.048Z,88.99
2022-09-22T00:18:31.154Z,88.46
2022-09-22T00:20:34.093Z,88.07
2022-09-22T00:22:37.091Z,88.66
2022-09-22T00:24:40.317Z,88.42
2022-09-22T00:26:43.491Z,87.43
2022-09-22T00:28:48.325Z,89.23
2022-09-22T00:30:52.800Z,88.80
2022-09-22T00:32:56.130Z,87.83
2022-09-22T00:34:59.264Z,89.26
2022-09-22T00:37:02.291Z,89.13
2022-09-22T00:39:05.512Z,88.78
2022-09-22T00:41:16.933Z,88.85
2022-09-22T00:43:22.712Z,88.80
2022-09-22T00:45:25.647Z,89.29
2022-09-22T00:47:34.490Z,88.29
2022-09-22T00:49:43.243Z,88.40
2022-09-22T00:51:46.218Z,88.93
2022-09-22T00:53:49.444Z,88.04
2022-09-22T00:55:55.483Z,89.41
2022-09-22T00:57:58.656Z,88.11
2022-09-22T01:00:02.953Z,87.94
2022-09-22T01:02:06.369Z,88.47
2022-09-22T01:04:10.801Z,89.46
2022-09-22T01:06:17.490Z,89.49
2022-09-22T01:08:21.665Z,89.27
2022-09-22T01:10:26.312Z,88.56
2022-09-22T01:12:30.800Z,89.22
2022-09-22T01:14:43.951Z,88.29
2022-09-22T01:16:53.402Z,89.48
2022-09-22T01:19:08.378Z,89.16
2022-09-22T01:21:23.989Z,88.65
2022-09-22T01:23:54.048Z,88.40
2022-09-22T01:26:08.439Z,90.19
2022-09-22T01:28:24.499Z,88.86
2022-09-22T01:30:32.609Z,89.80
2022-09-22T01:32:41.642Z,89.73
2022-09-22T01:34:48.932Z,89.73
2022-09-22T01:36:58.330Z,90.15
2022-09-22T01:39:07.542Z,89.76
2022-09-22T01:41:15.188Z,89.28
2022-09-22T01:43:27.917Z,90.00
2022-09-22T01:45:34.636Z,89.00
2022-09-22T01:47:40.747Z,89.39
2022-09-22T01:49:46.884Z,88.69
2022-09-22T01:51:53.009Z,89.01
2022-09-22T01:54:00.623Z,89.89
2022-09-22T01:56:06.468Z,88.97
2022-09-22T01:58:13.004Z,90.19
2022-09-22T02:00:16.496Z,88.76
2022-09-22T02:02:25.771Z,90.01
2022-09-22T02:04:34.234Z,90.03
2022-09-22T02:06:39.107Z,89.23
2022-09-22T02:08:45.287Z,89.37
2022-09-22T02:10:48.976Z,89.48
2022-09-22T02:12:52.178Z,90.38
2022-09-22T02:14:55.117Z,90.26
2022-09-22T02:16:58.239Z,89.61
2022-09-22T02:19:12.979Z,89.19
2022-09-22T02:21:17.656Z,89.18
2022-09-22T02:23:21.054Z,89.48
2022-09-22T02:25:24.864Z,88.51
2022-09-22T02:27:36.468Z,89.70
2022-09-22T02:29:43.000Z,89.77
2022-09-22T02:31:46.281Z,90.55
2022-09-22T02:33:49.703Z,90.07
2022-09-22T02:36:00.743Z,89.45
2022-09-22T02:38:06.430Z,90.13
2022-09-22T02:40:14.663Z,88.82
2022-09-22T02:42:25.983Z,90.27
2022-09-22T02:44:31.999Z,90.92
2022-09-22T02:46:40.111Z,89.83
2022-09-22T02:48:47.588Z,89.52
2022-09-22T02:50:50.519Z,89.35
2022-09-22T02:52:59.325Z,89.83
2022-09-22T02:55:02.255Z,91.06
2022-09-22T02:57:05.240Z,90.51
2022-09-22T02:59:09.400Z,90.05
2022-09-22T03:01:12.474Z,89.98
2022-09-22T03:03:15.500Z,90.06
2022-09-22T03:05:18.434Z,90.50
2022-09-22T03:07:21.326Z,91.26
2022-09-22T03:09:25.657Z,89.58
2022-09-22T03:11:28.586Z,90.91
2022-09-22T03:13:31.523Z,89.65
2022-09-22T03:15:34.559Z,90.38
2022-09-22T03:17:37.639Z,90.42
2022-09-22T03:19:40.583Z,90.13
2022-09-22T03:21:43.834Z,89.53
2022-09-22T03:23:46.805Z,89.93
2022-09-22T03:25:51.066Z,90.58
2022-09-22T03:27:54.013Z,90.97
2022-09-22T03:29:57.004Z,89.25
2022-09-22T03:31:59.926Z,90.58
2022-09-22T03:34:02.927Z,89.59
2022-09-22T03:36:06.728Z,89.72
2022-09-22T03:38:09.665Z,89.67
2022-09-22T03:40:12.699Z,90.22
2022-09-22T03:42:17.108Z,89.51
2022-09-22T03:44:20.008Z,89.28
2022-09-22T03:46:23.001Z,90.18
2022-09-22T03:48:26.538Z,89.59
2022-09-22T03:50:29.688Z,90.46
2022-09-22T03:52:33.415Z,89.43
2022-09-22T03:54:37.094Z,89.99
2022-09-22T03:56:40.145Z,89.66
2022-09-22T03:58:44.991Z,89.77
2022-09-22T04:00:49.448Z,90.23
2022-09-22T04:02:52.930Z,89.53
2022-09-22T04:04:56.432Z,89.33
2022-09-22T04:07:03.454Z,89.13
2022-09-22T04:09:10.221Z,89.07
2022-09-22T04:11:13.087Z,89.25
2022-09-22T04:13:17.136Z,89.25
2022-09-22T04:15:21.396Z,90.22
2022-09-22T04:17:24.295Z,89.16
2022-09-22T04:19:27.388Z,90.04
2022-09-22T04:21:30.252Z,89.58
2022-09-22T04:23:33.251Z,89.62
2022-09-22T04:25:36.226Z,89.43
2022-09-22T04:27:39.177Z,89.69
2022-09-22T04:29:42.090Z,89.49
2022-09-22T04:31:46.496Z,89.63
2022-09-22T04:33:49.468Z,89.77
2022-09-22T04:35:53.200Z,90.29
2022-09-22T04:37:56.491Z,89.64
2022-09-22T04:40:00.194Z,89.58
2022-09-22T04:42:03.487Z,90.03
2022-09-22T04:44:07.760Z,89.94
2022-09-22T04:46:11.918Z,89.59
2022-09-22T04:48:17.832Z,90.42
2022-09-22T04:50:23.148Z,90.18
2022-09-22T04:52:27.171Z,90.03
2022-09-22T04:54:31.309Z,90.30
2022-09-22T04:56:35.061Z,90.48
2022-09-22T04:58:39.100Z,90.32
2022-09-22T05:00:43.243Z,90.68
2022-09-22T05:02:47.958Z,90.70
2022-09-22T05:04:53.575Z,91.00
2022-09-22T05:06:56.810Z,91.37
2022-09-22T05:08:59.798Z,91.61
2022-09-22T05:11:06.580Z,91.16
2022-09-22T05:13:09.531Z,90.21
2022-09-22T05:15:14.235Z,91.49
2022-09-22T05:17:17.218Z,90.03
2022-09-22T05:19:20.971Z,90.08
2022-09-22T05:21:25.306Z,90.51
2022-09-22T05:23:28.305Z,89.94
2022-09-22T05:25:31.364Z,89.92
2022-09-22T05:27:34.322Z,90.84
2022-09-22T05:29:37.342Z,90.28
2022-09-22T05:31:40.309Z,89.73
2022-09-22T05:33:43.356Z,90.31
2022-09-22T05:35:46.364Z,90.22
2022-09-22T05:37:52.233Z,89.04
2022-09-22T05:39:55.283Z,90.06
2022-09-22T05:41:58.258Z,88.59
2022-09-22T05:44:01.389Z,89.70
2022-09-22T05:46:04.505Z,88.93
2022-09-22T05:48:07.688Z,87.46
2022-09-22T05:50:12.418Z,88.53
2022-09-22T05:52:15.417Z,88.17
2022-09-22T05:54:23.223Z,86.74
2022-09-22T05:56:26.547Z,86.43
2022-09-22T05:58:29.594Z,85.26
2022-09-22T06:00:33.483Z,84.89
2022-09-22T06:02:37.107Z,85.63
2022-09-22T06:04:40.213Z,85.44
2022-09-22T06:06:43.157Z,85.25
2022-09-22T06:08:48.995Z,84.53
2022-09-22T06:10:53.583Z,84.23
2022-09-22T06:12:59.434Z,83.73
2022-09-22T06:15:02.395Z,83.57
2022-09-22T06:17:10.635Z,82.84
2022-09-22T06:19:14.457Z,82.73
2022-09-22T06:21:17.582Z,81.76
2022-09-22T06:23:20.526Z,81.04
2022-09-22T06:25:23.613Z,81.66
2022-09-22T06:27:27.908Z,80.59
2022-09-22T06:29:30.955Z,82.02
2022-09-22T06:31:33.951Z,80.85
2022-09-22T06:33:36.935Z,80.32
2022-09-22T06:35:42.911Z,80.10
2022-09-22T06:37:47.786Z,78.64
2022-09-22T06:39:50.814Z,79.71
2022-09-22T06:41:56.338Z,80.37
2022-09-22T06:44:01.012Z,80.08
2022-09-22T06:46:04.084Z,80.10
2022-09-22T06:48:10.102Z,80.90
2022-09-22T06:50:13.550Z,80.04
2022-09-22T06:52:16.612Z,78.73
2022-09-22T06:54:22.546Z,78.98
2022-09-22T06:56:29.607Z,80.77
2022-09-22T06:58:46.980Z,80.64
2022-09-22T07:01:09.609Z,77.79
2022-09-22T07:03:17.893Z,79.04
2022-09-22T07:05:21.049Z,78.49
2022-09-22T07:07:27.349Z,77.56
2022-09-22T07:09:30.942Z,75.97
2022-09-22T07:11:38.878Z,77.49
2022-09-22T07:13:44.174Z,77.65
2022-09-22T07:15:47.232Z,77.53
2022-09-22T07:17:54.014Z,75.26
2022-09-22T07:19:58.517Z,76.13
2022-09-22T07:22:03.147Z,73.83
2022-09-22T07:24:08.118Z,77.72
2022-09-22T07:26:13.043Z,74.66
2022-09-22T07:28:15.989Z,73.64
2022-09-22T07:30:20.476Z,73.60
2022-09-22T07:32:23.486Z,74.47
2022-09-22T07:34:27.783Z,74.44
2022-09-22T07:36:32.273Z,73.47
2022-09-22T07:38:36.865Z,72.28
2022-09-22T07:40:39.819Z,73.84
2022-09-22T07:42:42.913Z,73.88
2022-09-22T07:45:02.596Z,72.19
2022-09-22T07:47:05.799Z,73.27
2022-09-22T07:49:08.226Z,72.99
2022-09-22T07:51:16.778Z,73.36
2022-09-22T07:53:20.105Z,70.15
2022-09-22T07:55:24.183Z,71.78
2022-09-22T07:57:30.288Z,71.15
2022-09-22T07:59:33.755Z,72.32
2022-09-22T08:01:37.551Z,72.94
2022-09-22T08:03:40.630Z,74.01
2022-09-22T08:05:43.521Z,71.45
2022-09-22T08:07:48.007Z,72.22
2022-09-22T08:09:51.100Z,71.12
2022-09-22T08:11:54.756Z,70.19
2022-09-22T08:13:59.869Z,70.12
2022-09-22T08:16:05.058Z,69.43
2022-09-22T08:18:08.325Z,70.49
2022-09-22T08:20:12.741Z,70.54
2022-09-22T08:22:15.741Z,71.36
2022-09-22T08:24:22.193Z,70.03
2022-09-22T08:26:25.764Z,70.67
2022-09-22T08:28:28.729Z,72.33
2022-09-22T08:30:31.741Z,71.61
2022-09-22T08:32:36.032Z,71.72
2022-09-22T08:34:38.996Z,69.14
2022-09-22T08:36:48.660Z,69.61
2022-09-22T08:38:51.882Z,67.58
2022-09-22T08:41:07.264Z,70.61
2022-09-22T08:43:12.832Z,67.93
2022-09-22T08:45:27.131Z,67.97
2022-09-22T08:48:06.610Z,67.52
2022-09-22T08:50:33.901Z,67.98
2022-09-22T08:52:39.834Z,68.78
2022-09-22T08:54:43.704Z,67.97
2022-09-22T08:56:57.495Z,68.97
2022-09-22T08:59:05.240Z,67.81
2022-09-22T09:01:18.568Z,65.41
2022-09-22T09:03:27.834Z,67.31
2022-09-22T09:05:50.802Z,66.30
2022-09-22T09:08:00.176Z,62.07
2022-09-22T09:10:08.478Z,63.52
2022-09-22T09:12:27.960Z,62.71
2022-09-22T09:14:50.491Z,63.61
2022-09-22T09:16:56.983Z,65.59
2022-09-22T09:19:06.940Z,65.71
2022-09-22T09:21:14.624Z,65.04
2022-09-22T09:23:19.261Z,65.31
2022-09-22T09:25:28.287Z,65.56
2022-09-22T09:27:36.999Z,63.12
2022-09-22T09:29:44.478Z,61.84
2022-09-22T09:31:49.256Z,61.11
2022-09-22T09:33:56.582Z,61.87
2022-09-22T09:35:59.823Z,56.99
2022-09-22T09:38:03.736Z,59.06
2022-09-22T09:40:15.268Z,59.12
2022-09-22T09:42:23.323Z,57.56
2022-09-22T09:44:30.447Z,57.12
2022-09-22T09:46:42.760Z,56.39
2022-09-22T09:49:02.725Z,58.80
2022-09-22T09:51:06.460Z,58.43
2022-09-22T09:53:30.727Z,57.55
2022-09-22T09:55:35.291Z,57.81
2022-09-22T09:58:06.174Z,59.91
2022-09-22T10:00:31.790Z,57.27
2022-09-22T10:02:37.269Z,56.62
2022-09-22T10:04:40.971Z,56.97
2022-09-22T10:06:44.775Z,57.42
2022-09-22T10:08:51.445Z,58.04
2022-09-22T10:10:58.181Z,58.16
2022-09-22T10:13:23.079Z,57.72
2022-09-22T10:15:28.095Z,56.55
2022-09-22T10:17:34.701Z,57.84
2022-09-22T10:19:37.771Z,58.05
2022-09-22T10:21:40.734Z,57.52
2022-09-22T10:23:44.810Z,56.94
2022-09-22T10:25:49.220Z,57.38
2022-09-22T10:28:06.958Z,58.22
2022-09-22T10:30:23.921Z,57.58
2022-09-22T10:32:28.289Z,58.09
2022-09-22T10:34:33.348Z,56.59
2022-09-22T10:36:37.497Z,56.75
2022-09-22T10:38:41.588Z,57.13
2022-09-22T10:40:47.588Z,56.98
2022-09-22T10:42:51.483Z,58.40
2022-09-22T10:44:57.282Z,57.70
2022-09-22T10:47:12.062Z,57.87
2022-09-22T10:49:21.938Z,56.88
2022-09-22T10:51:39.887Z,54.39
2022-09-22T10:54:05.197Z,55.09
2022-09-22T10:56:14.286Z,55.16
2022-09-22T10:58:28.193Z,57.23
2022-09-22T11:00:36.721Z,54.67
2022-09-22T11:03:22.371Z,56.32
2022-09-22T11:05:55.717Z,55.41
2022-09-22T11:08:22.840Z,56.61
2022-09-22T11:10:51.270Z,57.39
2022-09-22T11:13:01.023Z,56.34
2022-09-22T11:15:16.504Z,55.64
2022-09-22T11:17:31.417Z,55.64
2022-09-22T11:19:58.698Z,55.72
2022-09-22T11:22:18.068Z,56.39
2022-09-22T11:24:48.115Z,56.19
2022-09-22T11:26:53.517Z,55.97
2022-09-22T11:29:11.047Z,57.26
2022-09-22T11:31:20.809Z,56.87
2022-09-22T11:33:45.713Z,55.99
2022-09-22T11:36:06.192Z,55.65
2022-09-22T11:38:26.043Z,55.83
2022-09-22T11:40:37.059Z,55.45
2022-09-22T11:42:46.173Z,56.08
2022-09-22T11:44:56.036Z,55.72
2022-09-22T11:47:12.539Z,55.79
2022-09-22T11:49:23.627Z,56.27
2022-09-22T11:51:36.501Z,55.23
2022-09-22T11:53:58.443Z,55.92
2022-09-22T11:56:21.475Z,56.04
2022-09-22T11:58:27.783Z,56.20
2022-09-22T12:00:35.856Z,56.59
2022-09-22T12:02:41.291Z,55.43
2022-09-22T12:04:47.927Z,55.27
2022-09-22T12:06:52.957Z,56.19
2022-09-22T12:09:01.286Z,56.24
2022-09-22T12:11:07.700Z,56.99
2022-09-22T12:13:15.296Z,56.41
2022-09-22T12:15:23.485Z,57.25
2022-09-22T12:17:31.408Z,55.99
2022-09-22T12:19:41.850Z,55.76
2022-09-22T12:21:51.199Z,56.03
2022-09-22T12:23:55.118Z,55.79
2022-09-22T12:26:02.930Z,55.33
2022-09-22T12:28:05.855Z,57.24
2022-09-22T12:30:21.538Z,56.97
2022-09-22T12:32:26.257Z,55.92
2022-09-22T12:34:32.602Z,57.53
2022-09-22T12:36:38.496Z,57.01
2022-09-22T12:38:41.575Z,58.37
2022-09-22T12:40:49.521Z,58.95
2022-09-22T12:42:54.734Z,56.79
2022-09-22T12:44:59.150Z,57.79
2022-09-22T12:47:04.433Z,58.13
2022-09-22T12:49:09.201Z,56.13
2022-09-22T12:51:33.224Z,57.12
2022-09-22T12:53:40.137Z,56.69
2022-09-22T12:55:46.095Z,56.76
2022-09-22T12:57:50.297Z,57.66
2022-09-22T13:00:12.938Z,57.60
2022-09-22T13:02:23.566Z,56.67
2022-09-22T13:04:26.704Z,57.55
2022-09-22T13:07:06.321Z,56.97
2022-09-22T13:09:20.485Z,55.85
2022-09-22T13:11:57.097Z,56.70
2022-09-22T13:14:00.158Z,57.27
2022-09-22T13:16:06.844Z,57.07
2022-09-22T13:18:34.816Z,56.61
2022-09-22T13:20:37.891Z,56.81
2022-09-22T13:22:40.871Z,57.10
2022-09-22T13:24:43.884Z,57.06
2022-09-22T13:26:46.803Z,55.83
2022-09-22T13:29:00.392Z,57.52
2022-09-22T13:31:11.272Z,57.34
2022-09-22T13:33:22.191Z,56.39
2022-09-22T13:35:27.248Z,56.82
2022-09-22T13:37:31.121Z,56.53
2022-09-22T13:39:36.302Z,56.18
2022-09-22T13:41:44.144Z,56.75
2022-09-22T13:43:50.135Z,56.52
2022-09-22T13:45:53.660Z,56.30
2022-09-22T13:48:07.553Z,56.43
2022-09-22T13:50:14.561Z,56.16
2022-09-22T13:52:21.640Z,56.12
2022-09-22T13:54:27.300Z,56.20
2022-09-22T13:56:30.291Z,56.36
2022-09-22T13:58:36.738Z,56.89
2022-09-22T14:01:08.803Z,57.73
2022-09-22T14:03:07.311Z,56.63
2022-09-22T14:05:18.247Z,56.11
2022-09-22T14:07:22.572Z,56.15
2022-09-22T14:09:26.243Z,57.06
2022-09-22T14:11:31.997Z,56.67
2022-09-22T14:13:39.425Z,56.98
2022-09-22T14:15:44.220Z,57.40
2022-09-22T14:17:47.222Z,56.36
2022-09-22T14:19:56.195Z,55.61
2022-09-22T14:22:01.008Z,57.19
2022-09-22T14:24:04.116Z,56.79
2022-09-22T14:26:23.436Z,56.20
2022-09-22T14:28:28.490Z,57.19
2022-09-22T14:30:41.857Z,57.49
2022-09-22T14:32:49.139Z,57.19
2022-09-22T14:34:57.527Z,57.68
2022-09-22T14:37:02.452Z,57.42
2022-09-22T14:39:10.028Z,57.57
2022-09-22T14:41:22.966Z,57.44
2022-09-22T14:43:28.983Z,57.00
2022-09-22T14:45:32.779Z,57.22
2022-09-22T14:47:39.495Z,57.02
2022-09-22T14:49:44.568Z,57.75
2022-09-22T14:51:50.095Z,56.93
2022-09-22T14:54:01.499Z,56.34
2022-09-22T14:56:07.582Z,57.02
2022-09-22T14:58:18.600Z,56.77
2022-09-22T15:00:39.002Z,57.81
2022-09-22T15:02:44.522Z,57.45
2022-09-22T15:04:51.564Z,58.18
2022-09-22T15:06:57.534Z,56.96
2022-09-22T15:09:04.083Z,57.49
2022-09-22T15:11:07.227Z,57.62
2022-09-22T15:13:30.629Z,56.84
2022-09-22T15:15:33.718Z,57.45
2022-09-22T15:17:56.663Z,57.48
2022-09-22T15:19:59.851Z,57.44
2022-09-22T15:22:06.971Z,57.30
2022-09-22T15:24:10.814Z,57.62
2022-09-22T15:26:16.993Z,57.54
2022-09-22T15:28:23.700Z,57.12
2022-09-22T15:30:31.883Z,57.98
2022-09-22T15:32:34.955Z,57.58
2022-09-22T15:34:40.759Z,56.96
2022-09-22T15:36:46.514Z,57.36
2022-09-22T15:38:50.850Z,57.67
2022-09-22T15:40:53.991Z,57.46
2022-09-22T15:43:12.363Z,57.67
2022-09-22T15:45:18.667Z,58.24
2022-09-22T15:47:21.673Z,58.21
2022-09-22T15:49:26.452Z,58.07
2022-09-22T15:51:30.419Z,59.18
2022-09-22T15:53:35.010Z,58.20
2022-09-22T15:55:39.428Z,58.46
2022-09-22T15:57:43.543Z,58.29
2022-09-22T15:59:46.702Z,57.79
2022-09-22T16:01:49.783Z,58.02
2022-09-22T16:03:52.783Z,58.42
2022-09-22T16:05:58.027Z,58.88
2022-09-22T16:08:01.149Z,58.42
2022-09-22T16:10:04.391Z,58.22
2022-09-22T16:12:10.982Z,59.01
2022-09-22T16:14:14.253Z,59.19
2022-09-22T16:16:18.247Z,59.29
2022-09-22T16:18:21.346Z,58.69
2022-09-22T16:20:24.348Z,58.64
2022-09-22T16:22:27.435Z,59.02
2022-09-22T16:24:31.006Z,58.89
2022-09-22T16:26:33.987Z,58.66
2022-09-22T16:28:38.815Z,59.00
2022-09-22T16:30:41.814Z,59.22
2022-09-22T16:32:44.790Z,59.12
2022-09-22T16:34:48.037Z,58.60
2022-09-22T16:36:52.515Z,59.69
2022-09-22T16:38:56.270Z,60.23
2022-09-22T16:41:02.770Z,58.93
2022-09-22T16:43:07.484Z,58.90
2022-09-22T16:45:12.096Z,59.88
2022-09-22T16:47:15.755Z,59.16
2022-09-22T16:49:20.354Z,59.39
2022-09-22T16:51:23.375Z,59.45
2022-09-22T16:53:26.492Z,59.28
2022-09-22T16:55:29.635Z,59.78
2022-09-22T16:57:32.633Z,61.06
2022-09-22T16:59:35.692Z,60.92
2022-09-22T17:01:40.131Z,60.61
2022-09-22T17:03:43.196Z,60.96
2022-09-22T17:05:46.701Z,62.09
2022-09-22T17:07:50.070Z,60.76
2022-09-22T17:09:53.099Z,61.08
2022-09-22T17:11:57.883Z,62.15
2022-09-22T17:14:03.177Z,61.89
2022-09-22T17:16:09.994Z,63.25
2022-09-22T17:18:14.365Z,63.04
2022-09-22T17:20:17.593Z,63.50
2022-09-22T17:22:21.308Z,64.08
2022-09-22T17:24:25.739Z,64.83
2022-09-22T17:26:30.241Z,64.42
2022-09-22T17:28:33.518Z,64.22
2022-09-22T17:30:36.535Z,63.50
2022-09-22T17:32:39.685Z,65.27
2022-09-22T17:34:44.003Z,64.40
2022-09-22T17:36:47.301Z,64.55
2022-09-22T17:38:52.468Z,65.32
2022-09-22T17:41:07.178Z,65.27
2022-09-22T17:43:11.158Z,66.17
2022-09-22T17:45:14.294Z,66.37
2022-09-22T17:47:43.355Z,65.24
2022-09-22T17:50:05.227Z,67.56
2022-09-22T17:52:27.248Z,67.64
2022-09-22T17:54:49.448Z,67.55
2022-09-22T17:56:52.401Z,65.93
2022-09-22T17:58:55.434Z,66.17
2022-09-22T18:00:58.366Z,67.15
2022-09-22T18:03:02.311Z,67.46
2022-09-22T18:05:08.423Z,67.77
2022-09-22T18:07:17.747Z,68.01
2022-09-22T18:09:21.981Z,68.11
2022-09-22T18:11:27.211Z,68.95
2022-09-22T18:13:30.206Z,69.27
2022-09-22T18:15:33.266Z,67.83
2022-09-22T18:17:41.293Z,68.74
2022-09-22T18:19:44.390Z,69.59
2022-09-22T18:21:48.698Z,68.96
2022-09-22T18:23:52.606Z,69.22
2022-09-22T18:26:02.186Z,68.06
2022-09-22T18:28:05.609Z,68.95
2022-09-22T18:30:14.185Z,68.14
2022-09-22T18:32:20.341Z,69.33
2022-09-22T18:34:23.716Z,67.88
2022-09-22T18:36:28.385Z,69.07
2022-09-22T18:38:33.416Z,69.24
2022-09-22T18:40:36.877Z,69.08
2022-09-22T18:42:41.363Z,68.38
2022-09-22T18:44:44.431Z,68.37
2022-09-22T18:46:48.198Z,69.01
2022-09-22T18:49:04.465Z,69.23
2022-09-22T18:51:07.921Z,69.29
2022-09-22T18:53:10.877Z,71.39
2022-09-22T18:55:17.330Z,72.31
2022-09-22T18:57:22.547Z,73.05
2022-09-22T18:59:27.463Z,73.68
2022-09-22T19:01:34.436Z,73.23
2022-09-22T19:03:38.550Z,75.14
2022-09-22T19:05:41.559Z,75.19
2022-09-22T19:07:47.671Z,75.55
2022-09-22T19:09:52.378Z,76.02
2022-09-22T19:11:56.850Z,76.28
2022-09-22T19:13:59.928Z,76.96
2022-09-22T19:16:04.551Z,77.86
2022-09-22T19:18:07.607Z,77.45
2022-09-22T19:20:12.325Z,77.95
2022-09-22T19:22:15.724Z,77.69
2022-09-22T19:24:18.846Z,78.79
2022-09-22T19:26:23.220Z,78.05
2022-09-22T19:28:28.533Z,79.26
2022-09-22T19:30:31.784Z,78.50
2022-09-22T19:32:35.035Z,78.76
2022-09-22T19:34:38.077Z,79.94
2022-09-22T19:36:41.757Z,79.73
2022-09-22T19:38:44.724Z,80.25
2022-09-22T19:40:47.741Z,79.77
2022-09-22T19:42:52.341Z,79.36
2022-09-22T19:44:56.804Z,79.61
2022-09-22T19:47:00.012Z,79.72
2022-09-22T19:49:03.160Z,80.24
2022-09-22T19:51:06.501Z,81.34
2022-09-22T19:53:09.602Z,81.45
2022-09-22T19:55:12.957Z,81.83
2022-09-22T19:57:16.029Z,80.89
2022-09-22T19:59:19.743Z,82.42
2022-09-22T20:01:32.384Z,82.76
2022-09-22T20:03:35.409Z,81.21
2022-09-22T20:05:39.482Z,81.47
2022-09-22T20:07:42.530Z,82.09
2022-09-22T20:09:45.543Z,83.35
2022-09-22T20:11:51.926Z,82.08
2022-09-22T20:14:12.229Z,81.54
2022-09-22T20:16:15.169Z,82.92
2022-09-22T20:18:22.081Z,83.30
2022-09-22T20:20:26.892Z,81.81
2022-09-22T20:22:30.542Z,82.48
2022-09-22T20:24:34.044Z,83.03
2022-09-22T20:26:40.516Z,83.89
2022-09-22T20:28:44.005Z,84.51
2022-09-22T20:30:47.333Z,83.63
2022-09-22T20:32:51.096Z,83.43
2022-09-22T20:34:56.452Z,83.50
2022-09-22T20:36:59.505Z,82.88
2022-09-22T20:39:02.575Z,84.87
2022-09-22T20:41:05.757Z,83.43
2022-09-22T20:43:11.835Z,84.45
2022-09-22T20:45:15.408Z,84.13
2022-09-22T20:47:25.522Z,83.92
2022-09-22T20:49:28.597Z,84.32
2022-09-22T20:51:34.034Z,85.40
2022-09-22T20:53:37.992Z,84.75
2022-09-22T20:55:40.934Z,84.23
2022-09-22T20:57:43.897Z,84.62
2022-09-22T20:59:47.614Z,85.76
2022-09-22T21:01:50.638Z,84.19
2022-09-22T21:03:53.617Z,84.34
2022-09-22T21:05:59.971Z,85.78
2022-09-22T21:08:18.279Z,84.77
2022-09-22T21:10:36.452Z,84.71
2022-09-22T21:12:39.771Z,85.33
2022-09-22T21:14:45.923Z,84.92
2022-09-22T21:16:49.379Z,85.48
2022-09-22T21:18:53.106Z,85.89
2022-09-22T21:20:57.431Z,86.15
2022-09-22T21:23:01.189Z,86.01
2022-09-22T21:25:06.342Z,85.44
2022-09-22T21:27:09.496Z,85.66
2022-09-22T21:29:12.413Z,86.19
2022-09-22T21:31:15.514Z,85.91
2022-09-22T21:33:18.507Z,85.78
2022-09-22T21:35:21.440Z,86.03
2022-09-22T21:37:25.068Z,86.25
2022-09-22T21:39:28.113Z,86.10
2022-09-22T21:41:33.110Z,86.31
2022-09-22T21:43:36.484Z,85.96
2022-09-22T21:45:39.377Z,86.44
2022-09-22T21:47:42.281Z,86.41
2022-09-22T21:49:45.201Z,86.45
2022-09-22T21:51:48.348Z,86.25
2022-09-22T21:53:53.874Z,86.33
2022-09-22T21:55:58.374Z,87.04
2022-09-22T21:58:02.730Z,86.72
2022-09-22T22:00:08.106Z,86.24
2022-09-22T22:02:14.910Z,86.26
2022-09-22T22:04:18.236Z,86.26
2022-09-22T22:06:22.425Z,86.49
2022-09-22T22:08:25.345Z,86.63
2022-09-22T22:10:28.400Z,86.84
2022-09-22T22:12:31.356Z,86.54
2022-09-22T22:14:35.729Z,86.75
2022-09-22T22:16:40.398Z,87.10
2022-09-22T22:18:43.479Z,87.10
2022-09-22T22:20:46.456Z,87.25
2022-09-22T22:22:49.562Z,86.85
2022-09-22T22:24:52.679Z,87.31
2022-09-22T22:26:57.453Z,87.01
2022-09-22T22:29:00.541Z,86.86
2022-09-22T22:31:07.015Z,87.01
2022-09-22T22:33:10.129Z,87.01
2022-09-22T22:35:13.121Z,87.06
2022-09-22T22:37:16.781Z,86.75
2022-09-22T22:39:19.860Z,87.53
2022-09-22T22:41:22.822Z,87.27
2022-09-22T22:43:25.775Z,87.42
2022-09-22T22:45:28.750Z,87.30
2022-09-22T22:47:34.165Z,87.78
2022-09-22T22:49:37.221Z,87.58
2022-09-22T22:51:42.733Z,87.59
2022-09-22T22:53:46.118Z,87.56
2022-09-22T22:55:57.217Z,88.21
2022-09-22T22:58:00.191Z,87.79
2022-09-22T23:00:03.473Z,87.25
2022-09-22T23:02:06.451Z,87.96
2022-09-22T23:04:11.835Z,87.95
2022-09-22T23:06:16.947Z,87.99
2022-09-22T23:08:19.903Z,87.90
2022-09-22T23:10:23.003Z,87.95
2022-09-22T23:12:25.888Z,88.28
2022-09-22T23:14:28.825Z,88.10
2022-09-22T23:16:33.426Z,87.70
2022-09-22T23:18:38.087Z,88.11
2022-09-22T23:20:42.547Z,88.06
2022-09-22T23:22:45.511Z,88.38
2022-09-22T23:24:49.112Z,88.01
2022-09-22T23:26:52.053Z,87.88
2022-09-22T23:28:55.191Z,87.71
2022-09-22T23:30:58.709Z,87.92
2022-09-22T23:33:01.735Z,87.91
2022-09-22T23:35:06.599Z,87.29
2022-09-22T23:37:11.247Z,88.07
2022-09-22T23:39:14.197Z,88.18
2022-09-22T23:41:17.125Z,87.83
2022-09-22T23:43:20.172Z,88.78
2022-09-22T23:45:23.088Z,88.00
2022-09-22T23:47:26.022Z,87.62
2022-09-22T23:49:29.000Z,88.43
2022-09-22T23:51:32.249Z,88.30
2022-09-22T23:53:38.012Z,88.02
2022-09-22T23:55:41.495Z,88.64
2022-09-22T23:57:44.387Z,88.06
2022-09-22T23:59:47.353Z,88.06
